Airfield :







YOU CAN JOIN US ON...

 
LOGIN :

Register | Disclaimer

   EN    FR    IT 

 









Legend :    VFR   Marginal VFR   IFR   Intensive IFR   Very Intensive IFR
Visi :
Ceiling :
>= 8 km
>= 3000ft
5 to 8 km
1000 to 3000 ft
1500m to 5 km
500 to 1000 ft
800 to 1500m
200 to 500 ft
< 800m
< 200 ft
Symbols :   Thunderstorms  Fog  Heavy snow  Heavy precipitations  Wind > 20 kt






- Airport Elevation : 930 ft


KEFK - Newport State

CURRENT METAR :
  • 200135Z AUTO 34004KT 10SM CLR M13/M19 A3027 RMK AO2 T11281188

EXPIRED METARs :
  • 200115Z AUTO 34004KT 10SM CLR M12/M18 A3027 RMK AO2 T11181183
  • 200055Z AUTO 33006KT 10SM CLR M11/M18 A3026 RMK AO2 T11151184
  • 200035Z AUTO 31006KT 10SM CLR M11/M18 A3025 RMK AO2 T11061183
  • 200016Z AUTO 30007G16KT 10SM CLR M10/M18 A3025 RMK AO2 T10981185
  • 192356Z AUTO 28013G17KT 10SM CLR M09/M19 A3024 RMK AO2 T10951188 11049 21096
  • 192335Z AUTO 27009G17KT 10SM CLR M09/M18 A3023 RMK AO2 T10951181
  • 192315Z AUTO 28009G17KT 10SM CLR M09/M17 A3023 RMK AO2 T10911175
  • 192256Z AUTO 28007KT 10SM CLR M09/M17 A3021 RMK AO2 T10901170

TAF N/A



MET'MAP, your aeronautical weather chart ! - Copyright ORBIFLY December 2007 - Disclaimer

ORBIFLY MET'MAP TEAM :

Programming & Development : Alexandra Zaïnal
Concept & original design : Baudouin d'Aumeries
Assistance for programming : Marc-Olivier Méhu
Technical & hardware support : Manuel Goepfert

Contact : metmap@orbifly.com




SOURCES & CREDITS :

   NOAA